createdAt,value
2018-07-31T00:01:33.341Z,7.17
2018-07-31T00:04:07.775Z,7.20
2018-07-31T00:06:42.033Z,7.10
2018-07-31T00:09:16.300Z,6.53
2018-07-31T00:11:50.376Z,7.27
2018-07-31T00:14:25.317Z,7.07
2018-07-31T00:17:00.379Z,7.07
2018-07-31T00:19:34.970Z,7.27
2018-07-31T00:22:09.264Z,6.33
2018-07-31T00:24:43.421Z,6.47
2018-07-31T00:27:18.289Z,6.13
2018-07-31T00:29:53.468Z,6.23
2018-07-31T00:32:28.737Z,6.60
2018-07-31T00:35:02.861Z,6.60
2018-07-31T00:37:37.037Z,6.60
2018-07-31T00:40:11.550Z,6.20
2018-07-31T00:42:46.063Z,5.97
2018-07-31T00:45:20.540Z,6.00
2018-07-31T00:47:55.299Z,5.40
2018-07-31T00:50:30.934Z,5.97
2018-07-31T00:53:05.547Z,5.57
2018-07-31T00:55:39.997Z,5.90
2018-07-31T00:58:14.183Z,6.00
2018-07-31T01:00:48.301Z,5.57
2018-07-31T01:03:23.056Z,6.20
2018-07-31T01:05:57.349Z,6.33
2018-07-31T01:08:31.612Z,5.90
2018-07-31T01:11:05.815Z,5.40
2018-07-31T01:13:40.644Z,5.63
2018-07-31T01:16:14.802Z,6.07
2018-07-31T01:18:50.590Z,6.13
2018-07-31T01:21:25.929Z,6.00
2018-07-31T01:24:00.202Z,5.73
2018-07-31T01:26:34.740Z,6.20
2018-07-31T01:29:09.644Z,5.50
2018-07-31T01:31:44.108Z,5.63
2018-07-31T01:34:18.729Z,5.60
2018-07-31T01:36:52.857Z,5.40
2018-07-31T01:39:27.699Z,5.67
2018-07-31T01:42:02.214Z,5.83
2018-07-31T01:44:36.433Z,5.57
2018-07-31T01:47:10.649Z,5.80
2018-07-31T01:49:44.847Z,5.37
2018-07-31T01:52:19.056Z,5.40
2018-07-31T01:54:53.362Z,5.80
2018-07-31T01:57:27.471Z,5.57
2018-07-31T02:00:01.606Z,5.37
2018-07-31T02:02:37.083Z,5.27
2018-07-31T02:05:12.144Z,5.20
2018-07-31T02:07:46.597Z,5.10
2018-07-31T02:10:20.755Z,5.40
2018-07-31T02:12:56.426Z,5.47
2018-07-31T02:15:30.858Z,5.23
2018-07-31T02:18:05.249Z,5.87
2018-07-31T02:20:39.749Z,5.47
2018-07-31T02:23:14.384Z,5.43
2018-07-31T02:25:48.888Z,5.30
2018-07-31T02:28:23.496Z,5.90
2018-07-31T02:30:58.037Z,5.70
2018-07-31T02:33:32.548Z,5.33
2018-07-31T02:36:07.102Z,5.20
2018-07-31T02:38:41.519Z,5.37
2018-07-31T02:41:15.007Z,5.50
2018-07-31T02:43:49.710Z,5.13
2018-07-31T02:46:24.273Z,5.93
2018-07-31T02:49:01.358Z,5.60
2018-07-31T02:51:35.838Z,5.43
2018-07-31T02:54:10.428Z,5.47
2018-07-31T02:56:44.890Z,5.00
2018-07-31T02:59:19.384Z,5.50
2018-07-31T03:01:54.327Z,5.50
2018-07-31T03:04:28.871Z,5.50
2018-07-31T03:07:03.407Z,5.40
2018-07-31T03:09:37.949Z,5.80
2018-07-31T03:12:12.371Z,5.73
2018-07-31T03:14:46.759Z,5.67
2018-07-31T03:17:21.201Z,5.80
2018-07-31T03:19:55.648Z,6.10
2018-07-31T03:22:30.123Z,5.47
2018-07-31T03:25:05.110Z,5.73
2018-07-31T03:27:39.722Z,5.53
2018-07-31T03:30:14.156Z,5.50
2018-07-31T03:32:48.528Z,5.60
2018-07-31T03:35:23.065Z,5.67
2018-07-31T03:37:57.488Z,5.93
2018-07-31T03:40:31.962Z,5.40
2018-07-31T03:43:06.410Z,5.57
2018-07-31T03:45:40.966Z,5.60
2018-07-31T03:48:15.432Z,5.87
2018-07-31T03:50:49.901Z,5.70
2018-07-31T03:53:24.401Z,5.93
2018-07-31T03:55:58.783Z,6.23
2018-07-31T03:58:33.179Z,5.67
2018-07-31T04:01:07.580Z,5.87
2018-07-31T04:03:42.008Z,5.60
2018-07-31T04:06:16.578Z,5.70
2018-07-31T04:08:51.228Z,5.93
2018-07-31T04:11:25.726Z,5.83
2018-07-31T04:14:00.280Z,5.60
2018-07-31T04:16:34.866Z,5.87
2018-07-31T04:19:09.453Z,5.60
2018-07-31T04:21:44.020Z,6.00
2018-07-31T04:24:18.640Z,6.03
2018-07-31T04:26:53.194Z,5.63
2018-07-31T04:29:27.620Z,5.90
2018-07-31T04:32:00.842Z,5.87
2018-07-31T04:34:34.011Z,5.57
2018-07-31T04:37:06.826Z,5.40
2018-07-31T04:39:40.010Z,5.80
2018-07-31T04:42:13.047Z,6.00
2018-07-31T04:44:46.719Z,5.60
2018-07-31T04:47:19.478Z,5.60
2018-07-31T04:49:52.227Z,6.20
2018-07-31T04:52:25.197Z,6.10
2018-07-31T04:54:58.410Z,5.90
2018-07-31T04:57:32.723Z,5.73
2018-07-31T05:00:06.656Z,5.80
2018-07-31T05:02:40.135Z,5.80
2018-07-31T05:05:13.264Z,6.30
2018-07-31T05:07:46.303Z,5.97
2018-07-31T05:10:19.422Z,5.77
2018-07-31T05:12:52.271Z,6.07
2018-07-31T05:15:26.030Z,5.63
2018-07-31T05:17:59.148Z,5.83
2018-07-31T05:20:32.042Z,5.83
2018-07-31T05:23:04.835Z,6.57
2018-07-31T05:25:37.658Z,5.67
2018-07-31T05:28:10.860Z,6.10
2018-07-31T05:30:43.813Z,6.33
2018-07-31T05:33:17.849Z,5.40
2018-07-31T05:35:50.647Z,5.97
2018-07-31T05:38:23.919Z,5.87
2018-07-31T05:40:57.637Z,6.07
2018-07-31T05:43:30.546Z,5.80
2018-07-31T05:46:03.572Z,6.27
2018-07-31T05:48:37.446Z,7.20
2018-07-31T05:51:10.654Z,7.33
2018-07-31T05:53:43.494Z,6.30
2018-07-31T05:56:16.438Z,6.53
2018-07-31T05:58:50.646Z,6.47
2018-07-31T06:01:24.663Z,6.13
2018-07-31T06:03:57.515Z,6.40
2018-07-31T06:06:31.294Z,6.20
2018-07-31T06:09:04.372Z,6.17
2018-07-31T06:11:38.289Z,6.00
2018-07-31T06:14:11.220Z,6.27
2018-07-31T06:16:44.103Z,6.47
2018-07-31T06:19:16.953Z,5.90
2018-07-31T06:21:49.930Z,6.30
2018-07-31T06:24:23.203Z,5.90
2018-07-31T06:26:56.561Z,6.37
2018-07-31T06:29:29.864Z,6.23
2018-07-31T06:32:03.565Z,5.97
2018-07-31T06:34:36.687Z,6.03
2018-07-31T06:37:10.003Z,6.30
2018-07-31T06:39:43.069Z,6.73
2018-07-31T06:42:16.279Z,6.50
2018-07-31T06:44:49.169Z,6.43
2018-07-31T06:47:22.809Z,5.90
2018-07-31T06:49:55.814Z,6.40
2018-07-31T06:52:28.848Z,6.73
2018-07-31T06:55:02.673Z,6.50
2018-07-31T06:57:36.115Z,6.43
2018-07-31T07:00:10.090Z,6.23
2018-07-31T07:02:43.505Z,6.10
2018-07-31T07:05:16.539Z,6.33
2018-07-31T07:07:49.522Z,6.73
2018-07-31T07:10:22.458Z,6.23
2018-07-31T07:12:56.596Z,6.40
2018-07-31T07:15:30.199Z,6.37
2018-07-31T07:18:03.804Z,6.33
2018-07-31T07:20:37.153Z,6.60
2018-07-31T07:23:10.314Z,7.10
2018-07-31T07:25:43.278Z,6.70
2018-07-31T07:28:16.123Z,6.67
2018-07-31T07:30:51.295Z,6.70
2018-07-31T07:33:24.986Z,6.33
2018-07-31T07:35:58.081Z,6.50
2018-07-31T07:38:34.117Z,7.20
2018-07-31T07:41:08.622Z,6.80
2018-07-31T07:43:41.901Z,6.20
2018-07-31T07:46:15.655Z,6.87
2018-07-31T07:48:48.605Z,6.87
2018-07-31T07:51:22.218Z,7.03
2018-07-31T07:53:58.102Z,7.20
2018-07-31T07:56:31.443Z,6.83
2018-07-31T07:59:04.796Z,7.13
2018-07-31T08:01:39.650Z,7.23
2018-07-31T08:04:12.801Z,7.40
2018-07-31T08:06:46.170Z,6.90
2018-07-31T08:09:19.490Z,6.60
2018-07-31T08:11:52.837Z,6.67
2018-07-31T08:14:26.517Z,7.47
2018-07-31T08:16:59.445Z,6.50
2018-07-31T08:19:32.364Z,7.03
2018-07-31T08:22:05.817Z,7.30
2018-07-31T08:24:40.667Z,7.20
2018-07-31T08:27:18.283Z,6.77
2018-07-31T08:29:51.818Z,7.27
2018-07-31T08:32:25.210Z,6.90
2018-07-31T08:34:58.500Z,6.50
2018-07-31T08:37:31.485Z,7.30
2018-07-31T08:40:05.717Z,7.33
2018-07-31T08:42:39.225Z,6.70
2018-07-31T08:45:14.806Z,6.30
2018-07-31T08:47:47.682Z,6.47
2018-07-31T08:50:21.094Z,7.20
2018-07-31T08:52:54.791Z,7.03
2018-07-31T08:55:27.986Z,7.20
2018-07-31T08:58:00.962Z,7.07
2018-07-31T09:00:33.950Z,6.50
2018-07-31T09:03:06.939Z,7.33
2018-07-31T09:05:40.738Z,7.37
2018-07-31T09:08:15.221Z,7.30
2018-07-31T09:10:48.315Z,6.80
2018-07-31T09:13:21.958Z,6.30
2018-07-31T09:15:56.016Z,6.90
2018-07-31T09:18:29.338Z,6.65
2018-07-31T09:21:02.474Z,6.12
2018-07-31T09:23:36.249Z,6.62
2018-07-31T09:26:09.485Z,6.92
2018-07-31T09:28:42.605Z,7.10
2018-07-31T09:31:16.070Z,7.35
2018-07-31T09:33:49.749Z,7.37
2018-07-31T09:36:23.107Z,6.92
2018-07-31T09:38:55.834Z,7.08
2018-07-31T09:41:28.518Z,7.67
2018-07-31T09:44:02.212Z,6.83
2018-07-31T09:46:35.965Z,6.97
2018-07-31T09:49:08.788Z,7.85
2018-07-31T09:51:41.634Z,7.37
2018-07-31T09:54:14.465Z,7.08
2018-07-31T09:56:47.623Z,7.58
2018-07-31T09:59:21.081Z,7.47
2018-07-31T10:01:53.782Z,7.42
2018-07-31T10:04:26.682Z,6.90
2018-07-31T10:06:59.521Z,6.90
2018-07-31T10:09:32.711Z,6.87
2018-07-31T10:12:06.077Z,6.72
2018-07-31T10:14:38.839Z,7.00
2018-07-31T10:17:11.982Z,7.17
2018-07-31T10:19:44.701Z,7.03
2018-07-31T10:22:17.739Z,6.75
2018-07-31T10:24:50.579Z,6.92
2018-07-31T10:27:23.328Z,7.40
2018-07-31T10:29:56.259Z,6.85
2018-07-31T10:32:29.119Z,7.33
2018-07-31T10:35:02.262Z,6.87
2018-07-31T10:37:34.910Z,6.70
2018-07-31T10:40:08.155Z,6.10
2018-07-31T10:42:40.920Z,6.47
2018-07-31T10:45:14.194Z,6.45
2018-07-31T10:47:50.565Z,6.40
2018-07-31T10:50:23.421Z,6.42
2018-07-31T10:52:56.097Z,6.58
2018-07-31T10:55:28.888Z,6.58
2018-07-31T10:58:02.138Z,7.15
2018-07-31T11:00:35.329Z,6.30
2018-07-31T11:03:08.474Z,6.22
2018-07-31T11:05:41.247Z,5.97
2018-07-31T11:08:13.959Z,6.58
2018-07-31T11:10:46.765Z,6.25
2018-07-31T11:13:19.537Z,6.58
2018-07-31T11:15:53.081Z,6.70
2018-07-31T11:18:25.880Z,6.97
2018-07-31T11:20:59.009Z,6.58
2018-07-31T11:23:32.645Z,6.25
2018-07-31T11:26:05.758Z,6.58
2018-07-31T11:28:39.275Z,6.35
2018-07-31T11:31:11.953Z,6.28
2018-07-31T11:33:44.726Z,5.95
2018-07-31T11:36:18.197Z,5.67
2018-07-31T11:38:51.050Z,5.87
2018-07-31T11:41:24.737Z,6.10
2018-07-31T11:43:58.489Z,6.47
2018-07-31T11:46:31.672Z,5.90
2018-07-31T11:49:04.451Z,5.87
2018-07-31T11:51:37.643Z,6.12
2018-07-31T11:54:10.599Z,6.42
2018-07-31T11:56:43.422Z,5.85
2018-07-31T11:59:16.537Z,6.40
2018-07-31T12:01:49.336Z,6.40
2018-07-31T12:04:22.199Z,6.30
2018-07-31T12:06:54.869Z,6.12
2018-07-31T12:09:28.142Z,6.40
2018-07-31T12:12:01.606Z,6.78
2018-07-31T12:14:34.370Z,6.30
2018-07-31T12:17:07.157Z,6.28
2018-07-31T12:19:40.453Z,7.00
2018-07-31T12:22:13.155Z,5.87
2018-07-31T12:24:46.712Z,6.08
2018-07-31T12:27:19.987Z,5.47
2018-07-31T12:29:53.197Z,5.55
2018-07-31T12:32:26.438Z,5.40
2018-07-31T12:34:59.934Z,5.80
2018-07-31T12:37:33.109Z,5.72
2018-07-31T12:40:06.873Z,5.25
2018-07-31T12:42:40.511Z,5.10
2018-07-31T12:45:12.833Z,5.15
2018-07-31T12:47:45.759Z,5.08
2018-07-31T12:50:18.850Z,4.90
2018-07-31T12:52:51.610Z,5.53
2018-07-31T12:55:24.515Z,5.40
2018-07-31T12:57:57.196Z,5.42
2018-07-31T13:00:30.775Z,5.30
2018-07-31T13:03:03.445Z,5.50
2018-07-31T13:05:36.643Z,5.25
2018-07-31T13:08:09.411Z,5.33
2018-07-31T13:10:42.706Z,4.92
2018-07-31T13:13:15.894Z,4.78
2018-07-31T13:15:48.753Z,4.90
2018-07-31T13:18:21.877Z,5.33
2018-07-31T13:20:54.697Z,4.70
2018-07-31T13:23:27.427Z,4.70
2018-07-31T13:26:00.668Z,4.67
2018-07-31T13:28:33.023Z,5.30
2018-07-31T13:31:06.024Z,5.17
2018-07-31T13:33:39.187Z,5.60
2018-07-31T13:36:12.085Z,4.92
2018-07-31T13:38:44.832Z,5.25
2018-07-31T13:41:17.589Z,4.85
2018-07-31T13:43:50.788Z,5.28
2018-07-31T13:46:23.402Z,5.28
2018-07-31T13:48:56.179Z,5.28
2018-07-31T13:51:29.569Z,5.25
2018-07-31T13:54:02.706Z,5.30
2018-07-31T13:56:35.579Z,5.67
2018-07-31T13:59:09.489Z,5.20
2018-07-31T14:01:42.507Z,4.70
2018-07-31T14:04:15.706Z,5.50
2018-07-31T14:06:49.391Z,5.60
2018-07-31T14:09:22.242Z,4.97
2018-07-31T14:11:55.780Z,5.40
2018-07-31T14:14:29.520Z,5.40
2018-07-31T14:17:03.558Z,5.00
2018-07-31T14:19:36.461Z,5.42
2018-07-31T14:22:11.167Z,5.10
2018-07-31T14:24:44.157Z,5.28
2018-07-31T14:27:17.549Z,5.30
2018-07-31T14:29:50.643Z,5.90
2018-07-31T14:32:23.865Z,5.47
2018-07-31T14:34:57.083Z,5.40
2018-07-31T14:37:29.850Z,5.08
2018-07-31T14:40:02.901Z,5.10
2018-07-31T14:42:35.624Z,4.15
2018-07-31T14:45:08.864Z,4.50
2018-07-31T14:47:42.410Z,4.40
2018-07-31T14:50:15.549Z,4.70
2018-07-31T14:52:48.926Z,4.85
2018-07-31T14:55:22.587Z,4.33
2018-07-31T14:57:56.859Z,4.20
2018-07-31T15:00:29.663Z,4.58
2018-07-31T15:03:02.482Z,4.58
2018-07-31T15:05:35.330Z,4.50
2018-07-31T15:08:08.154Z,4.35
2018-07-31T15:10:41.343Z,3.90
2018-07-31T15:13:14.066Z,3.92
2018-07-31T15:15:46.710Z,4.10
2018-07-31T15:18:19.855Z,3.80
2018-07-31T15:20:52.570Z,4.12
2018-07-31T15:23:25.383Z,3.92
2018-07-31T15:25:58.487Z,4.30
2018-07-31T15:28:31.121Z,4.28
2018-07-31T15:31:03.830Z,3.80
2018-07-31T15:33:36.479Z,4.10
2018-07-31T15:36:09.913Z,3.70
2018-07-31T15:38:42.583Z,3.70
2018-07-31T15:41:15.348Z,3.95
2018-07-31T15:43:48.536Z,4.03
2018-07-31T15:46:21.314Z,3.58
2018-07-31T15:48:53.886Z,4.33
2018-07-31T15:51:26.566Z,3.90
2018-07-31T15:53:59.734Z,3.90
2018-07-31T15:56:33.269Z,4.37
2018-07-31T15:59:06.432Z,3.62
2018-07-31T16:01:39.085Z,4.12
2018-07-31T16:04:11.836Z,3.77
2018-07-31T16:06:44.666Z,4.50
2018-07-31T16:09:17.756Z,4.12
2018-07-31T16:11:51.359Z,4.40
2018-07-31T16:14:24.071Z,3.83
2018-07-31T16:16:56.818Z,4.10
2018-07-31T16:19:29.856Z,3.92
2018-07-31T16:22:03.382Z,3.50
2018-07-31T16:24:36.530Z,3.60
2018-07-31T16:27:12.529Z,3.60
2018-07-31T16:29:45.893Z,3.20
2018-07-31T16:32:19.074Z,3.10
2018-07-31T16:34:52.347Z,3.00
2018-07-31T16:37:25.214Z,2.42
2018-07-31T16:39:58.440Z,2.72
2018-07-31T16:42:31.311Z,2.37
2018-07-31T16:45:04.088Z,2.75
2018-07-31T16:47:37.327Z,2.77
2018-07-31T16:50:10.396Z,2.40
2018-07-31T16:52:43.595Z,2.60
2018-07-31T16:55:17.287Z,2.37
2018-07-31T16:57:50.569Z,2.50
2018-07-31T17:00:24.144Z,2.55
2018-07-31T17:02:57.001Z,2.67
2018-07-31T17:05:30.247Z,2.55
2018-07-31T17:08:03.541Z,2.83
2018-07-31T17:10:36.770Z,3.55
2018-07-31T17:13:10.592Z,3.25
2018-07-31T17:15:43.414Z,3.27
2018-07-31T17:18:16.420Z,3.65
2018-07-31T17:20:50.056Z,3.00
2018-07-31T17:23:23.189Z,3.00
2018-07-31T17:25:57.294Z,2.80
2018-07-31T17:28:31.027Z,3.05
2018-07-31T17:31:03.957Z,3.05
2018-07-31T17:33:36.997Z,2.75
2018-07-31T17:36:10.668Z,2.87
2018-07-31T17:38:44.013Z,2.70
2018-07-31T17:41:16.918Z,2.50
2018-07-31T17:43:50.266Z,2.70
2018-07-31T17:46:23.446Z,2.62
2018-07-31T17:48:56.344Z,2.67
2018-07-31T17:51:30.019Z,3.35
2018-07-31T17:54:03.368Z,2.40
2018-07-31T17:56:36.706Z,2.55
2018-07-31T17:59:10.700Z,2.67
2018-07-31T18:01:44.119Z,8.18
2018-07-31T18:04:17.270Z,16.42
2018-07-31T18:06:50.550Z,17.95
2018-07-31T18:09:23.414Z,3.83
2018-07-31T18:11:57.082Z,4.53
2018-07-31T18:14:30.036Z,3.10
2018-07-31T18:17:03.291Z,2.98
2018-07-31T18:19:36.216Z,2.83
2018-07-31T18:22:09.344Z,2.95
2018-07-31T18:24:42.463Z,2.72
2018-07-31T18:27:16.432Z,3.42
2018-07-31T18:29:49.841Z,2.50
2018-07-31T18:32:23.186Z,2.70
2018-07-31T18:34:56.493Z,2.30
2018-07-31T18:37:29.359Z,2.90
2018-07-31T18:40:02.350Z,2.58
2018-07-31T18:42:35.812Z,2.67
2018-07-31T18:45:08.828Z,2.35
2018-07-31T18:47:41.784Z,2.33
2018-07-31T18:50:14.755Z,3.00
2018-07-31T18:52:48.254Z,2.35
2018-07-31T18:55:21.284Z,2.83
2018-07-31T18:57:54.695Z,2.75
2018-07-31T19:00:27.630Z,2.50
2018-07-31T19:03:00.568Z,3.10
2018-07-31T19:05:33.816Z,3.83
2018-07-31T19:08:06.902Z,2.42
2018-07-31T19:10:40.294Z,2.80
2018-07-31T19:13:13.617Z,3.00
2018-07-31T19:15:46.572Z,2.40
2018-07-31T19:18:19.549Z,2.27
2018-07-31T19:20:52.958Z,2.23
2018-07-31T19:23:26.150Z,2.20
2018-07-31T19:25:59.927Z,2.37
2018-07-31T19:28:33.315Z,2.40
2018-07-31T19:31:06.863Z,2.10
2018-07-31T19:33:40.268Z,2.30
2018-07-31T19:36:13.396Z,2.40
2018-07-31T19:38:46.264Z,2.40
2018-07-31T19:41:19.223Z,2.33
2018-07-31T19:43:52.342Z,2.00
2018-07-31T19:46:25.546Z,2.23
2018-07-31T19:48:58.716Z,2.20
2018-07-31T19:51:31.601Z,1.87
2018-07-31T19:54:04.555Z,2.23
2018-07-31T19:56:37.775Z,2.20
2018-07-31T19:59:11.173Z,4.20
2018-07-31T20:01:44.734Z,2.00
2018-07-31T20:04:17.926Z,1.70
2018-07-31T20:06:50.755Z,1.40
2018-07-31T20:09:27.747Z,1.63
2018-07-31T20:12:00.521Z,1.80
2018-07-31T20:14:34.253Z,1.60
2018-07-31T20:17:09.000Z,1.70
2018-07-31T20:19:43.032Z,1.53
2018-07-31T20:22:17.215Z,1.50
2018-07-31T20:24:51.678Z,1.60
2018-07-31T20:27:26.361Z,1.50
2018-07-31T20:30:00.793Z,1.80
2018-07-31T20:32:35.556Z,1.50
2018-07-31T20:35:10.857Z,1.50
2018-07-31T20:37:45.209Z,1.50
2018-07-31T20:40:20.065Z,1.80
2018-07-31T20:42:54.804Z,1.37
2018-07-31T20:45:37.098Z,1.83
2018-07-31T20:48:12.782Z,1.50
2018-07-31T20:50:48.270Z,1.40
2018-07-31T20:53:22.734Z,1.50
2018-07-31T20:55:58.924Z,1.40
2018-07-31T20:58:37.646Z,1.30
2018-07-31T21:01:20.728Z,1.33
2018-07-31T21:04:00.051Z,1.50
2018-07-31T21:06:46.797Z,1.57
2018-07-31T21:09:25.521Z,1.63
2018-07-31T21:12:00.136Z,1.50
2018-07-31T21:14:35.067Z,1.33
2018-07-31T21:17:09.958Z,1.70
2018-07-31T21:19:46.327Z,1.50
2018-07-31T21:22:21.019Z,1.97
2018-07-31T21:24:55.720Z,1.57
2018-07-31T21:27:31.078Z,1.60
2018-07-31T21:30:05.668Z,1.57
2018-07-31T21:32:40.695Z,1.40
2018-07-31T21:35:15.242Z,1.60
2018-07-31T21:37:51.321Z,1.83
2018-07-31T21:40:26.582Z,1.57
2018-07-31T21:43:01.504Z,1.50
2018-07-31T21:45:35.638Z,1.67
2018-07-31T21:48:10.253Z,7.97
2018-07-31T21:50:44.879Z,1.70
2018-07-31T21:53:19.078Z,1.60
2018-07-31T21:55:53.214Z,1.50
2018-07-31T21:58:27.304Z,1.77
2018-07-31T22:01:07.733Z,1.50
2018-07-31T22:03:41.825Z,1.80
2018-07-31T22:06:16.022Z,1.80
2018-07-31T22:08:50.662Z,1.70
2018-07-31T22:11:25.494Z,2.20
2018-07-31T22:14:00.127Z,2.00
2018-07-31T22:16:34.872Z,2.00
2018-07-31T22:19:09.310Z,1.73
2018-07-31T22:21:43.522Z,1.77
2018-07-31T22:24:18.687Z,1.80
2018-07-31T22:26:52.958Z,2.17
2018-07-31T22:29:27.076Z,2.10
2018-07-31T22:32:01.432Z,2.30
2018-07-31T22:34:35.595Z,2.10
2018-07-31T22:37:09.749Z,2.30
2018-07-31T22:39:43.273Z,2.50
2018-07-31T22:42:17.360Z,2.50
2018-07-31T22:44:51.354Z,2.37
2018-07-31T22:47:25.837Z,2.10
2018-07-31T22:50:00.295Z,2.27
2018-07-31T22:52:34.807Z,2.50
2018-07-31T22:55:09.655Z,2.07
2018-07-31T22:57:43.775Z,2.43
2018-07-31T23:00:19.099Z,2.67
2018-07-31T23:02:53.885Z,2.50
2018-07-31T23:05:28.725Z,2.90
2018-07-31T23:08:03.323Z,2.70
2018-07-31T23:10:37.803Z,2.77
2018-07-31T23:13:12.619Z,2.90
2018-07-31T23:15:46.727Z,2.70
2018-07-31T23:18:20.905Z,2.50
2018-07-31T23:20:55.714Z,2.60
2018-07-31T23:23:29.943Z,2.80
2018-07-31T23:26:04.058Z,3.13
2018-07-31T23:28:38.323Z,3.00
2018-07-31T23:31:12.510Z,3.33
2018-07-31T23:33:46.764Z,2.50
2018-07-31T23:36:21.687Z,2.93
2018-07-31T23:38:56.514Z,3.20
2018-07-31T23:41:31.438Z,2.57
2018-07-31T23:44:05.940Z,2.70
2018-07-31T23:46:41.424Z,2.87
2018-07-31T23:49:15.517Z,2.87
2018-07-31T23:51:49.440Z,2.67
2018-07-31T23:54:24.536Z,2.70
2018-07-31T23:56:59.629Z,2.80
2018-07-31T23:59:33.594Z,2.73
